createdAt,value
2022-08-05T00:01:36.196Z,3.92
2022-08-05T00:04:18.553Z,3.67
2022-08-05T00:06:47.279Z,3.85
2022-08-05T00:09:19.586Z,3.60
2022-08-05T00:11:49.383Z,3.47
2022-08-05T00:14:28.915Z,3.92
2022-08-05T00:16:58.223Z,3.97
2022-08-05T00:19:33.216Z,3.65
2022-08-05T00:22:01.359Z,3.85
2022-08-05T00:24:30.658Z,5.13
2022-08-05T00:26:59.317Z,3.50
2022-08-05T00:29:27.460Z,4.10
2022-08-05T00:32:13.109Z,4.20
2022-08-05T00:35:04.280Z,3.42
2022-08-05T00:37:35.454Z,3.60
2022-08-05T00:40:28.363Z,3.83
2022-08-05T00:42:58.106Z,4.28
2022-08-05T00:45:37.971Z,4.25
2022-08-05T00:48:07.002Z,3.65
2022-08-05T00:50:34.598Z,4.22
2022-08-05T00:53:02.550Z,3.95
2022-08-05T00:55:42.130Z,4.30
2022-08-05T00:58:13.555Z,4.60
2022-08-05T01:00:41.043Z,4.55
2022-08-05T01:03:12.696Z,4.13
2022-08-05T01:05:50.435Z,4.22
2022-08-05T01:08:40.332Z,4.10
2022-08-05T01:11:33.884Z,4.07
2022-08-05T01:14:10.034Z,4.15
2022-08-05T01:16:49.206Z,3.67
2022-08-05T01:19:30.201Z,3.88
2022-08-05T01:22:31.870Z,4.50
2022-08-05T01:25:04.614Z,3.90
2022-08-05T01:27:55.549Z,3.80
2022-08-05T01:33:06.280Z,4.07
2022-08-05T01:35:51.919Z,4.20
2022-08-05T01:38:24.694Z,4.07
2022-08-05T01:40:57.137Z,4.13
2022-08-05T01:43:24.630Z,3.88
2022-08-05T01:45:56.101Z,3.80
2022-08-05T01:48:26.420Z,3.70
2022-08-05T01:50:55.277Z,4.72
2022-08-05T01:53:42.203Z,3.35
2022-08-05T01:58:09.313Z,3.78
2022-08-05T01:59:03.610Z,5.03
2022-08-05T02:01:40.106Z,3.90
2022-08-05T02:04:09.368Z,3.53
2022-08-05T02:06:38.959Z,3.85
2022-08-05T02:09:07.449Z,3.30
2022-08-05T02:11:52.572Z,3.60
2022-08-05T02:14:29.223Z,3.40
2022-08-05T02:17:05.376Z,3.30
2022-08-05T02:19:41.400Z,3.50
2022-08-05T02:22:26.528Z,3.20
2022-08-05T02:25:02.598Z,3.42
2022-08-05T02:27:58.532Z,3.50
2022-08-05T02:30:20.223Z,3.63
2022-08-05T02:32:51.700Z,3.33
2022-08-05T02:35:27.723Z,3.42
2022-08-05T02:37:56.786Z,3.50
2022-08-05T02:40:27.626Z,3.70
2022-08-05T02:42:56.475Z,3.25
2022-08-05T02:45:25.331Z,4.13
2022-08-05T02:48:07.609Z,3.13
2022-08-05T02:50:44.029Z,4.13
2022-08-05T02:53:18.928Z,3.75
2022-08-05T02:55:59.667Z,4.10
2022-08-05T02:58:30.089Z,3.30
2022-08-05T03:01:01.970Z,3.50
2022-08-05T03:03:33.703Z,3.42
2022-08-05T03:06:56.736Z,3.70
2022-08-05T03:09:05.204Z,3.38
2022-08-05T03:11:54.642Z,3.60
2022-08-05T03:14:21.542Z,3.60
2022-08-05T03:16:48.449Z,3.22
2022-08-05T03:19:33.056Z,3.63
2022-08-05T03:22:01.480Z,3.67
2022-08-05T03:24:30.826Z,3.30
2022-08-05T03:27:00.052Z,3.55
2022-08-05T03:29:45.301Z,3.90
2022-08-05T03:32:15.533Z,4.28
2022-08-05T03:34:51.178Z,4.07
2022-08-05T03:37:23.704Z,4.13
2022-08-05T03:39:59.160Z,4.63
2022-08-05T03:42:28.882Z,3.88
2022-08-05T03:44:55.849Z,4.18
2022-08-05T03:47:24.392Z,3.78
2022-08-05T03:49:52.620Z,4.93
2022-08-05T03:52:39.330Z,4.18
2022-08-05T03:56:06.120Z,3.65
2022-08-05T03:58:12.720Z,3.88
2022-08-05T04:00:42.106Z,4.00
2022-08-05T04:03:28.237Z,3.65
2022-08-05T04:05:59.085Z,4.10
2022-08-05T04:08:35.340Z,3.88
2022-08-05T04:11:05.246Z,4.13
2022-08-05T04:13:50.909Z,4.10
2022-08-05T04:16:24.338Z,4.60
2022-08-05T04:18:54.042Z,4.53
2022-08-05T04:22:10.401Z,4.57
2022-08-05T04:24:09.023Z,4.20
2022-08-05T04:26:36.020Z,4.53
2022-08-05T04:29:07.278Z,4.13
2022-08-05T04:31:38.473Z,4.72
2022-08-05T04:36:52.148Z,3.90
2022-08-05T04:39:19.975Z,4.30
2022-08-05T04:41:48.253Z,4.35
2022-08-05T04:44:15.145Z,5.13
2022-08-05T04:46:48.549Z,4.82
2022-08-05T04:49:15.642Z,5.13
2022-08-05T04:51:45.339Z,4.85
2022-08-05T04:54:12.432Z,4.88
2022-08-05T04:56:39.635Z,4.50
2022-08-05T04:59:21.680Z,5.30
2022-08-05T05:02:07.590Z,4.78
2022-08-05T05:04:38.316Z,7.85
2022-08-05T05:07:10.690Z,4.88
2022-08-05T05:09:38.036Z,5.15
2022-08-05T05:12:06.144Z,4.38
2022-08-05T05:14:33.078Z,5.25
2022-08-05T05:17:03.728Z,5.13
2022-08-05T05:19:37.006Z,4.63
2022-08-05T05:22:24.646Z,4.95
2022-08-05T05:24:59.890Z,4.55
2022-08-05T05:27:41.372Z,5.28
2022-08-05T05:30:15.373Z,4.53
2022-08-05T05:32:55.460Z,5.03
2022-08-05T05:35:23.110Z,4.28
2022-08-05T05:38:00.348Z,4.65
2022-08-05T05:40:29.526Z,5.50
2022-08-05T05:42:57.364Z,5.53
2022-08-05T05:45:24.737Z,5.53
2022-08-05T05:48:06.679Z,4.78
2022-08-05T05:50:41.074Z,5.20
2022-08-05T05:53:21.424Z,4.72
2022-08-05T05:55:51.507Z,4.50
2022-08-05T05:58:30.203Z,4.38
2022-08-05T06:01:02.440Z,5.10
2022-08-05T06:04:00.971Z,4.87
2022-08-05T06:06:28.106Z,4.20
2022-08-05T06:08:58.424Z,4.50
2022-08-05T06:11:25.280Z,4.30
2022-08-05T06:13:54.113Z,5.03
2022-08-05T06:16:30.901Z,4.78
2022-08-05T06:19:01.982Z,4.47
2022-08-05T06:21:37.237Z,4.78
2022-08-05T06:24:12.133Z,4.55
2022-08-05T06:26:51.256Z,5.43
2022-08-05T06:29:25.248Z,5.03
2022-08-05T06:32:17.286Z,5.38
2022-08-05T06:34:53.585Z,5.43
2022-08-05T06:37:56.424Z,5.93
2022-08-05T06:40:11.049Z,5.40
2022-08-05T06:42:39.754Z,5.70
2022-08-05T06:45:08.705Z,5.00
2022-08-05T06:48:36.902Z,4.95
2022-08-05T06:50:22.772Z,5.13
2022-08-05T06:52:58.706Z,4.13
2022-08-05T06:55:30.412Z,4.50
2022-08-05T06:58:20.212Z,5.20
2022-08-05T07:00:50.228Z,4.50
2022-08-05T07:03:17.511Z,4.57
2022-08-05T07:05:47.770Z,4.50
2022-08-05T07:08:16.380Z,4.30
2022-08-05T07:10:52.909Z,3.50
2022-08-05T07:13:57.786Z,4.35
2022-08-05T07:18:00.303Z,4.20
2022-08-05T07:20:31.336Z,4.07
2022-08-05T07:22:28.832Z,4.40
2022-08-05T07:25:23.686Z,4.20
2022-08-05T07:27:57.770Z,4.45
2022-08-05T07:30:33.947Z,4.53
2022-08-05T07:33:05.328Z,4.00
2022-08-05T07:36:04.134Z,4.03
2022-08-05T07:38:32.969Z,4.28
2022-08-05T07:42:07.277Z,3.88
2022-08-05T07:43:58.463Z,4.40
2022-08-05T07:46:31.053Z,4.65
2022-08-05T07:49:02.311Z,4.70
2022-08-05T07:51:40.835Z,4.55
2022-08-05T07:54:22.037Z,5.03
2022-08-05T07:57:02.057Z,4.55
2022-08-05T07:59:40.940Z,4.38
2022-08-05T08:02:16.694Z,3.80
2022-08-05T08:04:50.434Z,4.60
2022-08-05T08:07:22.388Z,4.55
2022-08-05T08:09:52.386Z,4.18
2022-08-05T08:12:36.848Z,4.45
2022-08-05T08:15:15.804Z,4.43
2022-08-05T08:17:49.629Z,4.00
2022-08-05T08:20:43.944Z,4.10
2022-08-05T08:23:07.652Z,3.78
2022-08-05T08:26:00.578Z,4.28
2022-08-05T08:28:36.482Z,5.07
2022-08-05T08:31:04.500Z,4.32
2022-08-05T08:33:36.060Z,4.13
2022-08-05T08:36:29.431Z,3.90
2022-08-05T08:38:55.368Z,3.70
2022-08-05T08:45:19.669Z,4.30
2022-08-05T08:46:58.220Z,4.00
2022-08-05T08:50:14.490Z,4.35
2022-08-05T08:52:19.804Z,3.40
2022-08-05T08:54:48.025Z,3.92
2022-08-05T08:57:14.910Z,4.20
2022-08-05T08:59:47.416Z,4.30
2022-08-05T09:02:19.182Z,3.90
2022-08-05T09:04:58.467Z,4.88
2022-08-05T09:07:39.810Z,4.32
2022-08-05T09:10:21.800Z,4.10
2022-08-05T09:12:54.870Z,4.60
2022-08-05T09:15:23.416Z,4.28
2022-08-05T09:17:52.894Z,3.55
2022-08-05T09:20:36.552Z,4.65
2022-08-05T09:23:19.666Z,3.90
2022-08-05T09:26:06.496Z,4.28
2022-08-05T09:28:37.787Z,3.83
2022-08-05T09:31:43.508Z,4.25
2022-08-05T09:33:55.111Z,3.90
2022-08-05T09:36:27.729Z,4.28
2022-08-05T09:39:18.012Z,3.35
2022-08-05T09:42:03.808Z,3.97
2022-08-05T09:44:50.478Z,3.80
2022-08-05T09:47:20.561Z,3.35
2022-08-05T09:50:00.609Z,3.70
2022-08-05T09:52:34.544Z,3.83
2022-08-05T09:55:57.213Z,3.90
2022-08-05T09:57:58.713Z,4.00
2022-08-05T10:00:27.644Z,3.60
2022-08-05T10:02:57.985Z,3.33
2022-08-05T10:05:28.088Z,3.50
2022-08-05T10:08:35.947Z,3.10
2022-08-05T10:10:53.964Z,2.83
2022-08-05T10:13:27.529Z,3.00
2022-08-05T10:16:37.770Z,3.25
2022-08-05T10:19:10.067Z,3.20
2022-08-05T10:21:40.228Z,2.93
2022-08-05T10:24:13.491Z,3.10
2022-08-05T10:26:51.517Z,3.13
2022-08-05T10:29:23.594Z,3.10
2022-08-05T10:32:52.563Z,3.15
2022-08-05T10:34:37.458Z,2.63
2022-08-05T10:37:08.282Z,3.10
2022-08-05T10:39:59.180Z,3.00
2022-08-05T10:42:34.353Z,3.25
2022-08-05T10:45:02.030Z,3.50
2022-08-05T10:48:29.397Z,2.97
2022-08-05T10:51:03.387Z,3.20
2022-08-05T10:53:38.223Z,2.90
2022-08-05T10:56:21.607Z,3.15
2022-08-05T10:58:55.024Z,3.40
2022-08-05T11:01:54.647Z,3.63
2022-08-05T11:04:27.860Z,3.00
2022-08-05T11:06:57.711Z,3.00
2022-08-05T11:09:39.066Z,3.53
2022-08-05T11:12:55.024Z,2.65
2022-08-05T11:16:00.236Z,3.20
2022-08-05T11:18:34.091Z,3.35
2022-08-05T11:21:11.322Z,3.30
2022-08-05T11:24:04.503Z,3.28
2022-08-05T11:26:32.932Z,3.33
2022-08-05T11:29:11.798Z,3.28
2022-08-05T11:31:54.356Z,3.03
2022-08-05T11:34:39.958Z,3.00
2022-08-05T11:38:30.852Z,2.88
2022-08-05T11:41:00.625Z,3.10
2022-08-05T11:44:00.722Z,3.38
2022-08-05T11:46:32.252Z,3.13
2022-08-05T11:49:00.666Z,2.92
2022-08-05T11:51:43.545Z,2.80
2022-08-05T11:54:13.893Z,3.13
2022-08-05T11:56:50.260Z,2.60
2022-08-05T11:59:26.603Z,2.55
2022-08-05T12:02:01.752Z,3.20
2022-08-05T12:04:37.610Z,2.90
2022-08-05T12:07:11.978Z,3.03
2022-08-05T12:09:53.559Z,3.00
2022-08-05T12:12:25.781Z,3.08
2022-08-05T12:14:52.604Z,2.83
2022-08-05T12:18:04.310Z,2.75
2022-08-05T12:20:25.340Z,3.03
2022-08-05T12:23:09.559Z,2.53
2022-08-05T12:25:56.455Z,4.25
2022-08-05T12:28:34.011Z,3.28
2022-08-05T12:31:01.948Z,2.60
2022-08-05T12:33:37.023Z,2.92
2022-08-05T12:36:09.449Z,2.63
2022-08-05T12:38:40.358Z,3.25
2022-08-05T12:41:17.216Z,2.97
2022-08-05T12:44:04.847Z,2.90
2022-08-05T12:46:33.626Z,2.92
2022-08-05T12:49:13.151Z,3.22
2022-08-05T12:52:13.480Z,2.95
2022-08-05T12:54:49.801Z,2.78
2022-08-05T12:57:17.821Z,2.58
2022-08-05T13:02:04.440Z,3.42
2022-08-05T13:02:39.941Z,2.60
2022-08-05T13:05:07.508Z,2.88
2022-08-05T13:07:59.253Z,2.13
2022-08-05T13:10:24.885Z,2.85
2022-08-05T13:12:58.241Z,3.22
2022-08-05T13:18:19.526Z,2.92
2022-08-05T13:23:13.756Z,3.67
2022-08-05T13:25:51.982Z,2.80
2022-08-05T13:28:25.817Z,2.78
2022-08-05T13:30:53.191Z,2.95
2022-08-05T13:34:21.833Z,3.15
2022-08-05T13:36:10.261Z,2.60
2022-08-05T13:38:38.389Z,2.88
2022-08-05T13:41:09.807Z,2.50
2022-08-05T13:43:44.988Z,2.63
2022-08-05T13:46:37.956Z,2.83
2022-08-05T13:49:10.420Z,2.35
2022-08-05T13:51:41.268Z,2.72
2022-08-05T13:54:15.177Z,2.75
2022-08-05T13:56:51.605Z,3.00
2022-08-05T13:59:24.825Z,2.92
2022-08-05T14:01:59.096Z,3.03
2022-08-05T14:04:51.859Z,3.22
2022-08-05T14:07:59.894Z,3.50
2022-08-05T14:10:28.991Z,2.70
2022-08-05T14:12:58.889Z,3.50
2022-08-05T14:16:07.635Z,3.00
2022-08-05T14:18:18.652Z,3.10
2022-08-05T14:20:54.546Z,3.10
2022-08-05T14:23:25.134Z,3.20
2022-08-05T14:25:58.578Z,3.10
2022-08-05T14:28:29.623Z,3.00
2022-08-05T14:30:58.312Z,3.15
2022-08-05T14:33:25.450Z,2.67
2022-08-05T14:35:54.487Z,3.20
2022-08-05T14:38:32.168Z,2.90
2022-08-05T14:41:00.369Z,3.53
2022-08-05T14:43:59.107Z,2.65
2022-08-05T14:46:13.857Z,2.42
2022-08-05T14:48:40.780Z,3.67
2022-08-05T14:51:08.366Z,3.28
2022-08-05T14:53:44.377Z,3.40
2022-08-05T14:56:11.854Z,3.15
2022-08-05T14:58:47.756Z,3.25
2022-08-05T15:01:24.336Z,2.63
2022-08-05T15:04:11.532Z,3.05
2022-08-05T15:06:38.824Z,2.90
2022-08-05T15:09:07.305Z,3.17
2022-08-05T15:11:51.540Z,3.05
2022-08-05T15:14:35.551Z,3.22
2022-08-05T15:17:09.907Z,3.05
2022-08-05T15:19:55.022Z,3.38
2022-08-05T15:22:22.145Z,3.42
2022-08-05T15:24:54.297Z,2.63
2022-08-05T15:27:20.973Z,2.80
2022-08-05T15:29:47.631Z,3.17
2022-08-05T15:32:16.412Z,3.33
2022-08-05T15:34:43.361Z,2.65
2022-08-05T15:37:14.717Z,3.50
2022-08-05T15:41:02.072Z,3.15
2022-08-05T15:42:56.868Z,3.53
2022-08-05T15:45:18.673Z,3.33
2022-08-05T15:47:49.829Z,3.10
2022-08-05T15:50:21.080Z,4.32
2022-08-05T15:52:55.020Z,3.67
2022-08-05T15:55:24.608Z,3.47
2022-08-05T15:57:52.258Z,3.28
2022-08-05T16:00:26.502Z,3.00
2022-08-05T16:03:07.586Z,3.28
2022-08-05T16:05:34.379Z,8.15
2022-08-05T16:08:05.922Z,6.28
2022-08-05T16:10:32.791Z,3.85
2022-08-05T16:12:59.437Z,3.65
2022-08-05T16:15:32.652Z,3.35
2022-08-05T16:18:00.742Z,3.13
2022-08-05T16:20:31.197Z,2.53
2022-08-05T16:22:59.198Z,3.00
2022-08-05T16:25:32.338Z,2.95
2022-08-05T16:28:06.498Z,2.55
2022-08-05T16:30:36.659Z,3.10
2022-08-05T16:33:03.506Z,3.22
2022-08-05T16:35:33.530Z,2.55
2022-08-05T16:38:18.331Z,2.60
2022-08-05T16:41:00.500Z,3.33
2022-08-05T16:43:33.685Z,2.53
2022-08-05T16:46:07.434Z,3.20
2022-08-05T16:48:48.979Z,2.50
2022-08-05T16:51:16.296Z,2.95
2022-08-05T16:54:05.178Z,2.70
2022-08-05T16:56:33.671Z,3.28
2022-08-05T16:59:07.692Z,2.45
2022-08-05T17:01:52.778Z,2.63
2022-08-05T17:04:21.341Z,2.60
2022-08-05T17:06:53.413Z,2.13
2022-08-05T17:09:20.654Z,3.10
2022-08-05T17:11:50.838Z,3.00
2022-08-05T17:14:34.164Z,2.55
2022-08-05T17:17:15.003Z,2.95
2022-08-05T17:19:47.062Z,2.88
2022-08-05T17:22:25.595Z,2.92
2022-08-05T17:24:58.058Z,3.50
2022-08-05T17:27:27.148Z,2.92
2022-08-05T17:30:00.836Z,2.67
2022-08-05T17:32:29.624Z,3.25
2022-08-05T17:34:58.174Z,2.88
2022-08-05T17:37:39.508Z,2.90
2022-08-05T17:40:17.467Z,3.53
2022-08-05T17:42:51.905Z,3.20
2022-08-05T17:45:22.437Z,3.55
2022-08-05T17:47:55.081Z,3.47
2022-08-05T17:50:30.031Z,3.15
2022-08-05T17:53:02.373Z,3.38
2022-08-05T17:55:37.639Z,4.15
2022-08-05T17:58:10.927Z,3.92
2022-08-05T18:00:45.236Z,3.70
2022-08-05T18:03:39.165Z,4.10
2022-08-05T18:06:05.910Z,3.72
2022-08-05T18:08:38.365Z,3.70
2022-08-05T18:11:07.357Z,4.15
2022-08-05T18:13:36.848Z,4.32
2022-08-05T18:16:13.641Z,3.70
2022-08-05T18:18:41.509Z,4.03
2022-08-05T18:21:19.980Z,5.10
2022-08-05T18:23:49.631Z,4.30
2022-08-05T18:26:29.322Z,4.30
2022-08-05T18:28:58.746Z,4.38
2022-08-05T18:31:25.588Z,4.30
2022-08-05T18:33:59.782Z,4.13
2022-08-05T18:36:29.826Z,5.07
2022-08-05T18:38:56.830Z,4.13
2022-08-05T18:41:54.956Z,4.55
2022-08-05T18:44:11.363Z,4.30
2022-08-05T18:46:41.284Z,4.20
2022-08-05T18:49:30.543Z,4.45
2022-08-05T18:52:32.852Z,4.45
2022-08-05T18:55:00.342Z,5.00
2022-08-05T18:57:26.924Z,4.55
2022-08-05T19:00:20.004Z,3.97
2022-08-05T19:02:47.958Z,4.00
2022-08-05T19:06:11.890Z,4.57
2022-08-05T19:08:02.828Z,4.20
2022-08-05T19:10:30.465Z,5.22
2022-08-05T19:12:57.379Z,4.57
2022-08-05T19:15:58.350Z,4.82
2022-08-05T19:18:21.052Z,5.00
2022-08-05T19:20:53.702Z,5.75
2022-08-05T19:24:03.940Z,4.60
2022-08-05T19:26:09.347Z,5.22
2022-08-05T19:28:42.350Z,4.97
2022-08-05T19:31:13.230Z,4.57
2022-08-05T19:33:40.624Z,4.38
2022-08-05T19:36:16.884Z,5.47
2022-08-05T19:38:45.104Z,5.25
2022-08-05T19:41:11.944Z,4.20
2022-08-05T19:44:06.101Z,4.70
2022-08-05T19:46:29.269Z,4.32
2022-08-05T19:48:57.532Z,4.88
2022-08-05T19:54:27.209Z,4.40
2022-08-05T19:56:58.322Z,4.70
2022-08-05T20:00:00.210Z,5.22
2022-08-05T20:02:12.807Z,5.13
2022-08-05T20:04:42.976Z,4.57
2022-08-05T20:07:13.633Z,5.00
2022-08-05T20:09:54.709Z,4.65
2022-08-05T20:12:24.794Z,4.70
2022-08-05T20:14:52.984Z,6.22
2022-08-05T20:17:23.550Z,5.03
2022-08-05T20:19:56.567Z,5.05
2022-08-05T20:22:25.021Z,6.15
2022-08-05T20:24:54.315Z,5.32
2022-08-05T20:27:21.182Z,5.20
2022-08-05T20:29:58.263Z,5.03
2022-08-05T20:32:27.308Z,5.00
2022-08-05T20:34:54.889Z,4.90
2022-08-05T20:38:04.595Z,5.57
2022-08-05T20:40:09.141Z,5.13
2022-08-05T20:42:35.917Z,5.93
2022-08-05T20:45:03.082Z,5.97
2022-08-05T20:47:32.198Z,5.22
2022-08-05T20:49:59.736Z,5.63
2022-08-05T20:52:29.293Z,5.82
2022-08-05T20:55:54.197Z,5.38
2022-08-05T20:57:44.694Z,5.32
2022-08-05T21:00:41.086Z,6.80
2022-08-05T21:03:06.273Z,5.25
2022-08-05T21:05:48.413Z,5.63
2022-08-05T21:08:26.830Z,5.80
2022-08-05T21:11:10.315Z,5.95
2022-08-05T21:13:48.165Z,6.20
2022-08-05T21:16:29.997Z,5.32
2022-08-05T21:19:01.334Z,6.00
2022-08-05T21:21:44.194Z,6.10
2022-08-05T21:24:17.214Z,5.20
2022-08-05T21:26:53.480Z,5.85
2022-08-05T21:29:26.476Z,5.70
2022-08-05T21:31:58.419Z,5.50
2022-08-05T21:34:24.972Z,6.15
2022-08-05T21:36:51.671Z,7.68
2022-08-05T21:39:26.577Z,6.75
2022-08-05T21:42:01.660Z,6.00
2022-08-05T21:44:30.249Z,5.97
2022-08-05T21:46:59.437Z,5.00
2022-08-05T21:49:59.295Z,6.22
2022-08-05T21:52:16.292Z,6.28
2022-08-05T21:54:51.876Z,6.22
2022-08-05T21:57:31.228Z,6.03
2022-08-05T22:00:06.031Z,5.78
2022-08-05T22:02:33.948Z,5.28
2022-08-05T22:05:00.793Z,5.22
2022-08-05T22:07:39.740Z,5.82
2022-08-05T22:10:16.878Z,5.18
2022-08-05T22:12:44.783Z,5.25
2022-08-05T22:15:16.823Z,4.95
2022-08-05T22:18:03.657Z,5.43
2022-08-05T22:20:30.369Z,5.55
2022-08-05T22:23:21.358Z,5.57
2022-08-05T22:26:10.306Z,5.85
2022-08-05T22:28:41.190Z,5.53
2022-08-05T22:31:07.834Z,6.03
2022-08-05T22:33:56.824Z,6.53
2022-08-05T22:36:25.119Z,5.78
2022-08-05T22:38:52.156Z,6.40
2022-08-05T22:42:05.373Z,6.35
2022-08-05T22:44:08.942Z,6.03
2022-08-05T22:46:39.974Z,5.82
2022-08-05T22:50:17.072Z,6.20
2022-08-05T22:52:06.135Z,6.28
2022-08-05T22:54:35.472Z,5.90
2022-08-05T22:57:02.883Z,5.50
2022-08-05T22:59:53.540Z,5.13
2022-08-05T23:02:29.281Z,5.10
2022-08-05T23:04:58.381Z,5.15
2022-08-05T23:07:29.131Z,5.60
2022-08-05T23:10:01.439Z,4.85
2022-08-05T23:12:32.816Z,4.60
2022-08-05T23:17:34.125Z,5.03
2022-08-05T23:20:10.109Z,5.80
2022-08-05T23:22:37.124Z,4.88
2022-08-05T23:25:04.422Z,4.53
2022-08-05T23:27:42.542Z,5.07
2022-08-05T23:30:21.381Z,5.05
2022-08-05T23:32:53.967Z,4.63
2022-08-05T23:35:20.725Z,5.00
2022-08-05T23:37:48.091Z,4.70
2022-08-05T23:40:14.867Z,5.25
2022-08-05T23:42:41.759Z,5.20
2022-08-05T23:45:15.765Z,4.45
2022-08-05T23:47:48.277Z,4.63
2022-08-05T23:50:15.415Z,5.32
2022-08-05T23:52:49.963Z,5.18
2022-08-05T23:55:18.747Z,4.53
2022-08-05T23:57:49.019Z,4.82
